sensor_id;sensor_type;location;lat;lon;timestamp;P1;durP1;ratioP1;P2;durP2;ratioP2
80698;SDS011;70062;51.658;5.658;2023-05-09T10:03:41;29.60;;;8.60;;
80698;SDS011;70062;51.658;5.658;2023-05-09T10:06:14;21.90;;;7.10;;
80698;SDS011;70062;51.658;5.658;2023-05-09T10:08:40;29.80;;;8.10;;
80698;SDS011;70062;51.658;5.658;2023-05-09T10:11:07;30.00;;;7.00;;
80698;SDS011;70062;51.658;5.658;2023-05-09T10:13:33;24.80;;;6.90;;
80698;SDS011;70062;51.658;5.658;2023-05-09T10:16:00;15.50;;;6.90;;
80698;SDS011;70062;51.658;5.658;2023-05-09T10:18:27;10.60;;;5.90;;
80698;SDS011;70062;51.658;5.658;2023-05-09T10:20:54;13.70;;;6.10;;
80698;SDS011;70062;51.658;5.658;2023-05-09T10:23:25;13.80;;;6.30;;
80698;SDS011;70062;51.658;5.658;2023-05-09T10:25:58;19.10;;;6.50;;
80698;SDS011;70062;51.658;5.658;2023-05-09T10:28:30;15.60;;;5.10;;
80698;SDS011;70062;51.658;5.658;2023-05-09T10:31:00;11.90;;;5.70;;
80698;SDS011;70062;51.658;5.658;2023-05-09T10:33:43;10.80;;;4.70;;
80698;SDS011;70062;51.658;5.658;2023-05-09T10:36:12;13.10;;;5.20;;
80698;SDS011;70062;51.658;5.658;2023-05-09T10:38:41;9.30;;;5.20;;
80698;SDS011;70062;51.658;5.658;2023-05-09T10:41:07;8.40;;;4.20;;
80698;SDS011;70062;51.658;5.658;2023-05-09T10:46:03;18.70;;;5.00;;
80698;SDS011;70062;51.658;5.658;2023-05-09T10:48:30;9.70;;;4.40;;
80698;SDS011;70062;51.658;5.658;2023-05-09T10:50:56;7.60;;;4.50;;
80698;SDS011;70062;51.658;5.658;2023-05-09T10:53:23;15.10;;;3.80;;
80698;SDS011;70062;51.658;5.658;2023-05-09T10:58:48;9.40;;;4.30;;
80698;SDS011;70062;51.658;5.658;2023-05-09T11:01:13;10.70;;;4.70;;
80698;SDS011;70062;51.658;5.658;2023-05-09T11:03:57;12.30;;;4.60;;
80698;SDS011;70062;51.658;5.658;2023-05-09T11:11:52;10.90;;;4.60;;
80698;SDS011;70062;51.658;5.658;2023-05-09T11:14:36;8.30;;;3.50;;
80698;SDS011;70062;51.658;5.658;2023-05-09T11:17:05;11.10;;;4.00;;
80698;SDS011;70062;51.658;5.658;2023-05-09T11:24:38;6.70;;;3.80;;
80698;SDS011;70062;51.658;5.658;2023-05-09T11:27:12;11.10;;;4.30;;
80698;SDS011;70062;51.658;5.658;2023-05-09T11:29:42;6.90;;;3.90;;
80698;SDS011;70062;51.658;5.658;2023-05-09T11:32:17;9.50;;;4.10;;
80698;SDS011;70062;51.658;5.658;2023-05-09T11:34:44;10.70;;;4.00;;
80698;SDS011;70062;51.658;5.658;2023-05-09T11:37:10;14.30;;;4.10;;
80698;SDS011;70062;51.658;5.658;2023-05-09T11:42:29;10.70;;;3.80;;
80698;SDS011;70062;51.658;5.658;2023-05-09T11:44:55;18.20;;;4.70;;
80698;SDS011;70062;51.658;5.658;2023-05-09T11:47:22;7.60;;;3.80;;
80698;SDS011;70062;51.658;5.658;2023-05-09T11:49:48;6.80;;;3.70;;
80698;SDS011;70062;51.658;5.658;2023-05-09T11:52:14;9.50;;;3.70;;
80698;SDS011;70062;51.658;5.658;2023-05-09T11:54:40;9.70;;;5.20;;
80698;SDS011;70062;51.658;5.658;2023-05-09T11:57:05;6.00;;;3.60;;
80698;SDS011;70062;51.658;5.658;2023-05-09T11:59:34;8.00;;;3.90;;
80698;SDS011;70062;51.658;5.658;2023-05-09T12:02:05;6.60;;;3.50;;
80698;SDS011;70062;51.658;5.658;2023-05-09T12:04:32;10.30;;;4.20;;
80698;SDS011;70062;51.658;5.658;2023-05-09T12:06:58;5.40;;;3.10;;
80698;SDS011;70062;51.658;5.658;2023-05-09T12:09:24;19.60;;;5.60;;
80698;SDS011;70062;51.658;5.658;2023-05-09T12:11:53;7.90;;;3.20;;
80698;SDS011;70062;51.658;5.658;2023-05-09T12:14:25;3.90;;;2.50;;
80698;SDS011;70062;51.658;5.658;2023-05-09T12:16:51;6.40;;;3.50;;
80698;SDS011;70062;51.658;5.658;2023-05-09T12:19:17;7.30;;;2.80;;
80698;SDS011;70062;51.658;5.658;2023-05-09T12:21:43;7.60;;;3.00;;
80698;SDS011;70062;51.658;5.658;2023-05-09T12:24:08;7.60;;;2.60;;
80698;SDS011;70062;51.658;5.658;2023-05-09T12:26:34;8.90;;;3.20;;
80698;SDS011;70062;51.658;5.658;2023-05-09T12:28:59;8.20;;;2.80;;
80698;SDS011;70062;51.658;5.658;2023-05-09T12:31:25;8.20;;;2.70;;
80698;SDS011;70062;51.658;5.658;2023-05-09T12:33:53;11.40;;;3.10;;
80698;SDS011;70062;51.658;5.658;2023-05-09T12:36:18;8.00;;;2.90;;
80698;SDS011;70062;51.658;5.658;2023-05-09T12:38:53;10.30;;;2.80;;
80698;SDS011;70062;51.658;5.658;2023-05-09T12:41:19;3.80;;;2.20;;
80698;SDS011;70062;51.658;5.658;2023-05-09T12:43:49;6.20;;;2.80;;
80698;SDS011;70062;51.658;5.658;2023-05-09T12:46:18;6.20;;;2.00;;
80698;SDS011;70062;51.658;5.658;2023-05-09T12:48:44;4.00;;;2.60;;
80698;SDS011;70062;51.658;5.658;2023-05-09T12:51:09;9.60;;;4.80;;
80698;SDS011;70062;51.658;5.658;2023-05-09T12:53:38;4.70;;;2.50;;
80698;SDS011;70062;51.658;5.658;2023-05-09T12:56:11;7.90;;;2.70;;
80698;SDS011;70062;51.658;5.658;2023-05-09T12:58:39;13.30;;;2.90;;
80698;SDS011;70062;51.658;5.658;2023-05-09T13:01:12;5.50;;;2.20;;
80698;SDS011;70062;51.658;5.658;2023-05-09T13:03:39;4.90;;;2.30;;
80698;SDS011;70062;51.658;5.658;2023-05-09T13:06:05;10.90;;;2.40;;
80698;SDS011;70062;51.658;5.658;2023-05-09T13:08:36;3.60;;;2.20;;
80698;SDS011;70062;51.658;5.658;2023-05-09T13:11:02;7.90;;;2.20;;
80698;SDS011;70062;51.658;5.658;2023-05-09T13:13:27;4.90;;;2.30;;
80698;SDS011;70062;51.658;5.658;2023-05-09T13:15:53;7.50;;;2.50;;
80698;SDS011;70062;51.658;5.658;2023-05-09T13:21:11;11.00;;;2.90;;
80698;SDS011;70062;51.658;5.658;2023-05-09T13:23:36;12.20;;;2.50;;
80698;SDS011;70062;51.658;5.658;2023-05-09T13:26:02;6.10;;;2.60;;
80698;SDS011;70062;51.658;5.658;2023-05-09T13:28:27;5.20;;;2.30;;
80698;SDS011;70062;51.658;5.658;2023-05-09T13:30:53;8.30;;;2.30;;
80698;SDS011;70062;51.658;5.658;2023-05-09T13:33:18;6.90;;;2.40;;
80698;SDS011;70062;51.658;5.658;2023-05-09T13:35:43;17.20;;;3.10;;
80698;SDS011;70062;51.658;5.658;2023-05-09T13:38:09;15.40;;;2.80;;
80698;SDS011;70062;51.658;5.658;2023-05-09T13:40:34;9.50;;;3.20;;
80698;SDS011;70062;51.658;5.658;2023-05-09T13:43:00;8.60;;;2.60;;
80698;SDS011;70062;51.658;5.658;2023-05-09T13:45:25;12.00;;;2.10;;
80698;SDS011;70062;51.658;5.658;2023-05-09T13:47:51;10.60;;;2.40;;
80698;SDS011;70062;51.658;5.658;2023-05-09T13:50:16;12.30;;;2.00;;
80698;SDS011;70062;51.658;5.658;2023-05-09T13:52:41;13.50;;;2.50;;
80698;SDS011;70062;51.658;5.658;2023-05-09T13:55:07;11.80;;;2.60;;
80698;SDS011;70062;51.658;5.658;2023-05-09T13:57:32;13.80;;;2.50;;
80698;SDS011;70062;51.658;5.658;2023-05-09T13:59:57;10.60;;;2.40;;
80698;SDS011;70062;51.658;5.658;2023-05-09T14:02:23;6.30;;;2.20;;
80698;SDS011;70062;51.658;5.658;2023-05-09T14:04:48;6.00;;;1.90;;
80698;SDS011;70062;51.658;5.658;2023-05-09T14:07:13;7.20;;;1.80;;
80698;SDS011;70062;51.658;5.658;2023-05-09T14:09:40;7.00;;;2.70;;
80698;SDS011;70062;51.658;5.658;2023-05-09T14:12:06;13.70;;;2.60;;
80698;SDS011;70062;51.658;5.658;2023-05-09T14:14:33;8.80;;;2.30;;
